Terminal Aerodrome Forecast
Issued by NWS Blacksburg, VA

Home | Current Version | Previous Version | Text Only | Print | Product List | Glossary On
Versions: 1 2 3 4 5 6 7 8 9 10 11 12 13 14 15 16 17 18 19 20 21 22 23 24 25 26 27 28 29 30 31 32 33 34 35 36 37 38 39 40 41 42 43 44 45 46
000
FTUS41 KRNK 230520
TAFLYH
TAF
KLYH 230520Z 2306/2406 06010G20KT 3SM -RA BR BKN004 OVC013
      TEMPO 2308/2312 1SM RA BR
     FM231600 05008KT 4SM -RA BR BKN004 OVC012
     FM231900 03007KT P6SM -SHRA SCT007 OVC015
     FM240200 01006KT P6SM VCSH BKN025=

USA.gov is the U.S. government's official web portal to all federal, state and local government web resources and services.